Flight Track Log - Related Links

Times and Time Zones

All times are in EDT time to prevent confusion due to time zone crossing. See the FDX1162 flight status page for this flight to view local times or setup timezone preferences in your user account.

Time Position Orientation Groundspeed Altitude Reporting Facility
EDT Latitude Longitude Course Direction KTS MPH feet Rate Location/Type
Fri 04:37:44 AM 32.9690 -97.3130 173° South 150 173 2,000  Level FlightAware
Fri 04:38:02 AM 32.9560 -97.3120 176° South 158 182 2,700 2,053 Climbing FlightAware
Fri 04:38:22 AM 32.9410 -97.3120 180° South 184 212 3,300 1,745 Climbing FlightAware
Fri 04:38:57 AM 32.9090 -97.3200 192° South 230 265 4,300 1,692 Climbing FlightAware
Fri 04:39:01 AM 32.9060 -97.3230 220° Southwest 236 272 4,400 2,769 Climbing FlightAware
Fri 04:39:10 AM 32.9000 -97.3350 239° Southwest 248 285 4,900 2,824 Climbing FlightAware
Fri 04:39:18 AM 32.8980 -97.3430 253° West 254 292 5,200 2,571 Climbing FlightAware
Fri 04:39:24 AM 32.8970 -97.3510 262° West 261 300 5,500 3,214 Climbing FlightAware
Fri 04:39:46 AM 32.9070 -97.3860 289° West 290 334 6,700 3,000 Climbing FlightAware
Fri 04:40:06 AM 32.9250 -97.4090 313° West 300 345 7,600 3,000 Climbing FlightAware
Fri 04:40:22 AM 32.9410 -97.4290 314° West 299 344 8,500 3,257 Climbing FlightAware
Fri 04:40:41 AM 32.9580 -97.4510 313° West 300 345 9,500 3,283 Climbing FlightAware
Fri 04:41:15 AM 32.9900 -97.4910 314° West 293 337 11,400 2,239 Climbing FlightAware
Fri 04:41:48 AM 33.0230 -97.5340 312° West 326 375 12,000 1,151 Climbing FlightAware
Fri 04:42:28 AM 33.0660 -97.5890 313° West 357 411 12,800 1,417 Climbing FlightAware
Fri 04:43:00 AM 33.1030 -97.6350 314° West 372 428 13,700 1,412 Climbing FlightAware
Fri 04:43:36 AM 33.1490 -97.6900 315° West 393 452 14,400 1,500 Climbing FlightAware
Fri 04:44:08 AM 33.1910 -97.7370 317° Northwest 399 459 15,400 1,929 Climbing FlightAware
Fri 04:44:32 AM 33.2300 -97.7620 332° Northwest 405 466 16,200 1,700 Climbing FlightAware
Fri 04:45:08 AM 33.2900 -97.8030 330° Northwest 408 470 17,100 1,500 Climbing FlightAware
Fri 04:45:44 AM 33.3440 -97.8530 322° Northwest 414 476 18,000 1,500 Climbing FlightAware
Fri 04:46:16 AM 33.3930 -97.9000 321° Northwest 422 486 18,800 1,406 Climbing FlightAware
Fri 04:46:48 AM 33.4440 -97.9460 323° Northwest 429 494 19,500 1,500 Climbing FlightAware
Fri 04:47:28 AM 33.5070 -98.0040 322° Northwest 438 504 20,600 1,816 Climbing FlightAware
Fri 04:48:04 AM 33.5640 -98.0580 322° Northwest 438 504 21,800 1,765 Climbing FlightAware
Fri 04:48:36 AM 33.6170 -98.1080 322° Northwest 446 513 22,600 1,500 Climbing FlightAware
Fri 04:49:12 AM 33.6750 -98.1610 323° Northwest 452 520 23,500 1,500 Climbing FlightAware
Fri 04:49:48 AM 33.7330 -98.2140 323° Northwest 456 525 24,400 1,500 Climbing FlightAware
Fri 04:50:24 AM 33.7920 -98.2710 321° Northwest 461 531 25,300 1,452 Climbing FlightAware
Fri 04:50:50 AM 33.8390 -98.3140 323° Northwest 467 537 25,900 1,364 Climbing FlightAware
Fri 04:51:30 AM 33.9090 -98.3810 322° Northwest 474 545 26,800 1,325 Climbing FlightAware
Fri 04:52:07 AM 33.9710 -98.4400 322° Northwest 478 550 27,600 1,457 Climbing FlightAware
Fri 04:52:40 AM 34.0300 -98.4960 322° Northwest 481 554 28,500 1,652 Climbing FlightAware
Fri 04:53:16 AM 34.0920 -98.5560 321° Northwest 478 550 29,500 1,833 Climbing FlightAware
Fri 04:53:52 AM 34.1540 -98.6150 322° Northwest 472 543 30,700 1,944 Climbing FlightAware
Fri 04:54:27 AM 34.2150 -98.6740 321° Northwest 464 534 31,800 1,941 Climbing FlightAware
Fri 04:55:00 AM 34.2700 -98.7250 323° Northwest 456 525 32,900 1,714 Climbing FlightAware
Fri 04:55:37 AM 34.3320 -98.7850 321° Northwest 453 521 33,800 1,000 Climbing FlightAware
Fri 04:56:12 AM 34.3870 -98.8380 322° Northwest 456 525 34,100 882 Climbing FlightAware
Fri 04:56:45 AM 34.4410 -98.8910 321° Northwest 454 522 34,800 1,500 Climbing FlightAware
Fri 04:57:20 AM 34.5020 -98.9490 322° Northwest 450 518 35,800 1,583 Climbing FlightAware
Fri 04:57:57 AM 34.5620 -99.0060 322° Northwest 448 516 36,700 1,417 Climbing FlightAware
Fri 04:58:32 AM 34.6180 -99.0610 321° Northwest 444 511 37,500 1,130 Climbing FlightAware
Fri 04:59:06 AM 34.6720 -99.1130 322° Northwest 441 507 38,000 435 Climbing FlightAware
Fri 04:59:41 AM 34.7270 -99.1670 321° Northwest 441 507 38,000  Level FlightAware
Fri 05:00:15 AM 34.7830 -99.2210 322° Northwest 438 504 38,000  Level FlightAware
Fri 05:00:50 AM 34.8380 -99.2750 321° Northwest 438 504 38,000  Level FlightAware
Fri 05:01:27 AM 34.8970 -99.3330 321° Northwest 439 505 38,000  Level FlightAware
Fri 05:02:03 AM 34.9530 -99.3870 322° Northwest 438 504 38,000  Level FlightAware
Fri 05:02:37 AM 35.0070 -99.4400 321° Northwest 439 505 38,000  Level FlightAware
Fri 05:03:19 AM 35.0740 -99.5060 321° Northwest 440 506 38,000  Level FlightAware
Fri 05:03:52 AM 35.1270 -99.5580 321° Northwest 441 507 38,000  Level FlightAware
Fri 05:04:21 AM 35.1710 -99.6020 321° Northwest 441 507 38,000  Level FlightAware
Fri 05:05:10 AM 35.2490 -99.6790 321° Northwest 442 509 38,000  Level FlightAware
Fri 05:06:03 AM 35.3260 -99.7570 320° Northwest 442 509 38,000  Level FlightAware
Fri 05:06:33 AM 35.3810 -99.8100 322° Northwest 446 513 38,000  Level FlightAware
Fri 05:07:09 AM 35.4400 -99.8690 321° Northwest 448 516 38,000  Level FlightAware
Fri 05:07:46 AM 35.5010 -99.9290 321° Northwest 449 517 38,000  Level FlightAware
Fri 05:08:16 AM 35.5500 -99.9780 321° Northwest 449 517 38,000  Level FlightAware
Fri 05:08:54 AM 35.6100 -100.0380 321° Northwest 448 516 38,000  Level FlightAware
Fri 05:09:30 AM 35.6680 -100.0960 321° Northwest 448 516 38,000  Level FlightAware
Fri 05:10:02 AM 35.7180 -100.1470 320° Northwest 448 516 38,000  Level FlightAware
Fri 05:10:47 AM 35.7830 -100.2130 321° Northwest 449 517 38,000  Level FlightAware
Fri 05:11:05 AM 35.8200 -100.2490 322° Northwest 449 517 38,000  Level FlightAware
Fri 05:11:55 AM 35.9010 -100.3310 321° Northwest 449 517 38,000  Level FlightAware
Fri 05:12:32 AM 35.9600 -100.3900 321° Northwest 451 519 38,000  Level FlightAware
Fri 05:13:21 AM 36.0310 -100.4630 320° Northwest 451 519 38,000  Level FlightAware
Fri 05:13:52 AM 36.0890 -100.5220 321° Northwest 451 519 38,000  Level FlightAware
Fri 05:14:32 AM 36.1530 -100.5870 321° Northwest 451 519 38,000  Level FlightAware
Fri 05:15:17 AM 36.2180 -100.6540 320° Northwest 451 519 38,000  Level FlightAware
Fri 05:16:02 AM 36.2920 -100.7290 321° Northwest 450 518 38,000  Level FlightAware
Fri 05:16:46 AM 36.3620 -100.8010 320° Northwest 450 518 38,000  Level FlightAware
Fri 05:17:22 AM 36.4100 -100.8510 320° Northwest 450 518 38,000  Level FlightAware
Fri 05:17:58 AM 36.4590 -100.9020 320° Northwest 450 518 38,000  Level FlightAware
Fri 05:18:34 AM 36.5080 -100.9530 320° Northwest 450 518 38,000  Level FlightAware
Fri 05:19:10 AM 36.5570 -101.0040 320° Northwest 450 518 38,000  Level FlightAware
Fri 05:19:46 AM 36.6060 -101.0550 320° Northwest 450 518 38,000  Level FlightAware
Fri 05:20:22 AM 36.6540 -101.1060 320° Northwest 450 518 38,000  Level FlightAware
Fri 05:20:58 AM 36.7030 -101.1570 320° Northwest 450 518 38,000  Level FlightAware
Fri 05:21:34 AM 36.7520 -101.2080 320° Northwest 450 518 38,000  Level FlightAware
Fri 05:22:10 AM 36.8010 -101.2600 320° Northwest 450 518 38,000  Level FlightAware
Fri 05:22:46 AM 36.8500 -101.3110 320° Northwest 450 518 38,000  Level FlightAware
Fri 05:23:17 AM 36.9955 -101.4590 321° Northwest 450 518 38,000  Level FlightAware
Fri 05:23:57 AM 37.0594 -101.5263 320° Northwest 451 519 38,000  Level FlightAware
Fri 05:24:37 AM 37.1226 -101.5931 320° Northwest 451 519 38,000  Level FlightAware
Fri 05:25:10 AM 37.0450 -101.5160 142° Southeast 450 518 38,000  Level FlightAware
Fri 05:25:16 AM 37.1847 -101.6589 321° Northwest 451 519 38,000  Level FlightAware
Fri 05:25:46 AM 37.2322 -101.7092 320° Northwest 453 521 38,000  Level FlightAware
Fri 05:26:16 AM 37.2817 -101.7616 320° Northwest 453 521 38,000  Level FlightAware
Fri 05:26:46 AM 37.3296 -101.8128 320° Northwest 453 521 38,000  Level FlightAware
Fri 05:27:16 AM 37.3746 -101.8607 320° Northwest 452 520 38,000  Level FlightAware
Fri 05:27:47 AM 37.4248 -101.9144 320° Northwest 451 519 38,000  Level FlightAware
Fri 05:28:17 AM 37.4724 -101.9653 320° Northwest 449 517 38,000  Level FlightAware
Fri 05:28:56 AM 37.5351 -102.0326 320° Northwest 448 516 38,000  Level FlightAware
Fri 05:29:26 AM 37.5806 -102.0816 320° Northwest 448 516 38,000  Level FlightAware
Fri 05:29:57 AM 37.6314 -102.1363 320° Northwest 448 516 38,000  Level FlightAware
Fri 05:30:27 AM 37.6789 -102.1875 320° Northwest 448 516 38,000  Level FlightAware
Fri 05:30:57 AM 37.7248 -102.2372 319° Northwest 448 516 38,000  Level FlightAware
Fri 05:31:28 AM 37.7747 -102.2913 319° Northwest 448 516 38,000  Level FlightAware
Fri 05:31:58 AM 37.8223 -102.3430 319° Northwest 446 513 38,000 -200 Level FlightAware
Fri 05:32:28 AM 37.8686 -102.3933 319° Northwest 441 507 37,800 -774 Descending FlightAware
Fri 05:33:00 AM 37.9185 -102.4474 319° Northwest 440 506 37,200 -1,065 Descending FlightAware
Fri 05:33:30 AM 37.9641 -102.4973 319° Northwest 437 503 36,700 -1,180 Descending FlightAware
Fri 05:34:01 AM 38.0116 -102.5493 319° Northwest 441 507 36,000 -1,672 Descending FlightAware
Fri 05:34:31 AM 38.0585 -102.6010 319° Northwest 450 518 35,000 -1,800 Descending FlightAware
Fri 05:35:01 AM 38.1057 -102.6527 319° Northwest 455 524 34,200 -984 Descending FlightAware
Fri 05:35:32 AM 38.1540 -102.7056 319° Northwest 452 520 34,000 -197 Descending FlightAware
Fri 05:36:02 AM 38.2024 -102.7591 319° Northwest 454 522 34,000  Level FlightAware
Fri 05:36:42 AM 38.2669 -102.8301 319° Northwest 462 532 34,000  Level FlightAware
Fri 05:37:13 AM 38.3174 -102.8863 319° Northwest 468 539 34,000  Level FlightAware
Fri 05:37:43 AM 38.3666 -102.9407 319° Northwest 471 542 34,000  Level FlightAware
Fri 05:38:14 AM 38.4179 -102.9978 319° Northwest 476 548 34,000  Level FlightAware
Fri 05:38:44 AM 38.4679 -103.0533 319° Northwest 480 552 34,000  Level FlightAware
Fri 05:39:14 AM 38.5178 -103.1088 319° Northwest 480 552 34,000  Level FlightAware
Fri 05:39:44 AM 38.5645 -103.1613 319° Northwest 480 552 34,000  Level FlightAware
Fri 05:40:14 AM 38.6177 -103.2208 319° Northwest 479 551 34,000 -400 Level FlightAware
Fri 05:40:44 AM 38.6666 -103.2755 319° Northwest 469 540 33,600 -1,672 Descending FlightAware
Fri 05:41:15 AM 38.7182 -103.3338 319° Northwest 477 549 32,300 -2,557 Descending FlightAware
Fri 05:41:45 AM 38.7670 -103.3890 319° Northwest 482 555 31,000 -2,800 Descending FlightAware
Fri 05:42:15 AM 38.8187 -103.4473 319° Northwest 480 552 29,500 -3,000 Descending FlightAware
Fri 05:42:45 AM 38.8686 -103.5036 319° Northwest 484 557 28,000 -2,900 Descending FlightAware
Fri 05:43:15 AM 38.9192 -103.5610 319° Northwest 488 562 26,600 -2,600 Descending FlightAware
Fri 05:43:45 AM 38.9685 -103.6171 319° Northwest 483 556 25,400 -2,400 Descending FlightAware
Fri 05:44:15 AM 39.0197 -103.6751 319° Northwest 470 541 24,200 -2,400 Descending FlightAware
Fri 05:44:45 AM 39.0676 -103.7297 318° Northwest 459 528 23,000 -2,400 Descending FlightAware
Fri 05:45:15 AM 39.1150 -103.7840 318° Northwest 448 516 21,800 -2,261 Descending FlightAware
Fri 05:45:54 AM 39.1745 -103.8526 318° Northwest 438 504 20,400 -2,261 Descending FlightAware
Fri 05:46:24 AM 39.2196 -103.9044 318° Northwest 431 496 19,200 -2,289 Descending FlightAware
Fri 05:47:10 AM 39.2860 -103.9840 317° Northwest 417 480 17,500 -2,488 Descending FlightAware
Fri 05:47:46 AM 39.3310 -104.0520 311° West 402 463 15,800 -2,750 Descending FlightAware
Fri 05:48:22 AM 39.3680 -104.1230 304° West 401 461 14,200 -2,471 Descending FlightAware
Fri 05:48:54 AM 39.4010 -104.1860 304° West 393 452 13,000 -2,308 Descending FlightAware
Fri 05:49:14 AM 39.4185 -104.2189 304° West 390 449 12,200 -2,000 Descending FlightAware
Fri 05:49:45 AM 39.4520 -104.2839 304° West 383 441 11,300 -1,279 Descending FlightAware
Fri 05:50:15 AM 39.4804 -104.3395 303° West 357 411 10,900 -600 Descending FlightAware
Fri 05:50:55 AM 39.5147 -104.4067 304° West 313 360 10,600 -741 Descending FlightAware
Fri 05:51:36 AM 39.5460 -104.4670 304° West 273 314 9,900 -857 Descending FlightAware
Fri 05:51:58 AM 39.5610 -104.4960 304° West 254 292 9,700 -571 Descending FlightAware
Fri 05:52:18 AM 39.5730 -104.5210 302° West 251 289 9,500 -409 Descending FlightAware
Fri 05:52:42 AM 39.5880 -104.5510 303° West 244 281 9,400 -143 Descending FlightAware
Fri 05:53:00 AM 39.5990 -104.5730 303° West 239 275 9,400  Level FlightAware
Fri 05:53:18 AM 39.6100 -104.5940 304° West 239 275 9,400  Level FlightAware
Fri 05:53:38 AM 39.6230 -104.6170 306° West 237 273 9,400 -214 Level FlightAware
Fri 05:53:46 AM 39.6300 -104.6240 322° Northwest 237 273 9,300 -429 Descending FlightAware
Fri 05:54:06 AM 39.6490 -104.6390 329° Northwest 238 274 9,200 -938 Descending FlightAware
Fri 05:54:18 AM 39.6620 -104.6470 335° Northwest 242 278 8,800 -1,500 Descending FlightAware
Fri 05:54:26 AM 39.6700 -104.6500 344° North 230 265 8,700 -857 Descending FlightAware
Fri 05:54:46 AM 39.6890 -104.6550 349° North 200 230 8,400 -1,024 Descending FlightAware
Fri 05:55:07 AM 39.7070 -104.6580 353° North 176 203 8,000 -1,050 Descending FlightAware
Fri 05:55:26 AM 39.7220 -104.6590 357° North 162 186 7,700 -889 Descending FlightAware
Fri 05:55:34 AM 39.7280 -104.6580 North 159 183 7,600 -750 Descending FlightAware
Fri 05:55:42 AM 39.7330 -104.6580 360° North 156 180 7,500 -833 Descending FlightAware
Fri 05:56:10 AM 39.7530 -104.6580 360° North 132 152 7,100 -792 Descending FlightAware
Fri 05:56:35 AM 39.7660 -104.6580 360° North 116 133 6,800 982 Descending FlightAware
Fri 05:57:05 AM 39.7060 -104.6580 180° South 179 206 8,000 1,080 Climbing FlightAware
Fri 05:57:25 AM 39.7210 -104.6590 357° North 163 188 7,700 -800 Descending FlightAware
Fri 05:57:35 AM 39.7290 -104.6580 North 159 183 7,600 -900 Descending FlightAware
Fri 05:57:45 AM 39.7350 -104.6580 360° North 155 178 7,400 -3,375 Descending FlightAware
Fri 05:58:07 AM 39.8190 -104.6570 North 123 142 5,800 -4,364 Descending FlightAware
Fri 05:58:46 AM 39.8400 -104.6570 360° North 84 97 -8,923 Descending FlightAware

Login

Don't have an account? Register now (free) for customized features, flight alerts, and more!